Terminal Aerodrome Forecast
Issued by NWS Louisville, KY

Home | Current Version | Previous Version | Text Only | Print | Product List | Glossary On
Versions: 1 2 3 4 5 6 7 8 9 10 11 12 13 14 15 16 17
940
FTUS43 KLMK 210815 AAA
TAFLEX
TAF AMD
KLEX 210815Z 2108/2206 VRB03KT 4SM BR SCT002 BKN004
      TEMPO 2108/2112 2SM BR BKN002
     FM211300 27006KT 5SM BR BKN006
     FM211600 29006KT P6SM VCSH BKN012
     FM212000 32009KT P6SM BKN022
     FM212200 33007KT P6SM SCT030=

USA.gov is the U.S. government's official web portal to all federal, state and local government web resources and services.